Time;durP1;ratioP1;P1;durP2;ratioP2;P2;SDS_P1;SDS_P2;PMS_P1;PMS_P2;Temp;Humidity;BMP_temperature;BMP_pressure;BME280_temperature;BME280_humidity;BME280_pressure;Samples;Min_cycle;Max_cycle;Signal;HPM_P1;HPM_P2
2022/01/01 14:46:47;;;;;;;4.47;2.03;;;;;;;11.21;78.61;100308.16;4858196;29;20116;-91
2022/01/01 14:49:26;;;;;;;3.45;1.92;;;;;;;11.54;78.74;100367.16;4858925;29;20049;-89
2022/01/01 14:52:06;;;;;;;4.25;2.35;;;;;;;11.48;78.95;100356.91;4859511;29;20054;-89
2022/01/01 14:54:46;;;;;;;3.38;1.90;;;;;;;10.72;78.42;100235.47;4859063;29;20132;-86
2022/01/01 14:57:21;;;;;;;5.75;2.58;;;;;;;11.42;78.76;100367.09;4860861;29;20057;-89
2022/01/01 14:59:56;;;;;;;3.80;1.85;;;;;;;11.25;78.84;100353.34;4865038;29;20057;-88
2022/01/01 15:02:29;;;;;;;5.35;2.35;;;;;;;11.36;79.16;100367.03;4864561;29;20049;-90
2022/01/01 15:05:00;;;;;;;3.90;1.98;;;;;;;11.07;79.17;100322.53;4866737;29;20053;-88
2022/01/01 15:07:32;;;;;;;3.75;2.20;;;;;;;11.35;79.07;100378.09;4864995;29;20045;-89
2022/01/01 15:10:05;;;;;;;4.55;2.55;;;;;;;10.51;79.36;100241.22;4848640;29;20136;-86
2022/01/01 15:12:35;;;;;;;6.18;2.78;;;;;;;11.27;79.38;100385.72;4864226;29;20049;-90
2022/01/01 15:15:06;;;;;;;5.70;2.60;;;;;;;11.21;79.59;100392.47;4864129;29;20046;-87
2022/01/01 15:17:41;;;;;;;4.75;2.72;;;;;;;11.16;79.71;100383.91;4864554;29;20042;-91
2022/01/01 15:20:16;;;;;;;5.78;2.70;;;;;;;11.18;79.69;100387.38;4864494;29;20137;-94
2022/01/01 15:23:02;;;;;;;6.63;2.90;;;;;;;11.13;79.97;100394.13;4869585;29;20050;-87
2022/01/01 15:25:32;;;;;;;4.95;2.63;;;;;;;10.82;79.56;100356.41;4864385;29;20061;-91
2022/01/01 15:28:02;;;;;;;5.00;2.78;;;;;;;10.76;80.16;100347.84;4864358;29;20053;-89
2022/01/01 15:30:38;;;;;;;5.30;2.83;;;;;;;10.73;80.23;100358.00;4864029;29;20457;-85
2022/01/01 15:33:27;;;;;;;5.22;2.72;;;;;;;11.01;80.35;100394.03;4864152;29;20060;-91
2022/01/01 15:36:23;;;;;;;6.07;2.55;;;;;;;10.38;80.34;100315.97;4872673;29;20053;-92
2022/01/01 15:38:58;;;;;;;4.65;2.17;;;;;;;10.87;81.07;100403.25;4863411;29;20128;-89
2022/01/01 15:41:51;;;;;;;5.95;2.65;;;;;;;10.70;80.87;100362.25;4862649;29;20049;-89
2022/01/01 15:44:23;;;;;;;4.85;2.67;;;;;;;10.91;81.04;100408.41;4865955;29;20057;-90
2022/01/01 15:46:56;;;;;;;6.43;2.72;;;;;;;10.88;80.76;100408.38;4880100;29;20052;-85
2022/01/01 15:49:28;;;;;;;5.63;2.88;;;;;;;10.84;81.05;100411.75;4881173;29;20057;-86
2022/01/01 15:52:05;;;;;;;5.90;2.70;;;;;;;10.77;80.88;100409.97;4880955;29;20051;-85
2022/01/01 15:54:36;;;;;;;5.43;2.88;;;;;;;10.67;81.55;100403.91;4881938;29;20499;-85
2022/01/01 15:57:16;;;;;;;5.35;2.80;;;;;;;10.68;81.66;100405.59;4881313;29;20045;-85
2022/01/01 15:59:53;;;;;;;5.45;2.28;;;;;;;10.68;81.66;100415.81;4881282;29;20045;-86
2022/01/01 16:02:41;;;;;;;5.53;2.67;;;;;;;10.58;81.92;100393.59;4879050;29;20045;-85
2022/01/01 16:05:26;;;;;;;6.53;3.22;;;;;;;10.68;81.91;100413.28;4877434;29;20049;-85
2022/01/01 16:07:59;;;;;;;8.65;3.58;;;;;;;10.69;81.58;100414.13;4879988;29;20113;-85
2022/01/01 16:10:31;;;;;;;9.05;4.38;;;;;;;10.45;81.81;100361.13;4862921;29;20459;-85
2022/01/01 16:13:03;;;;;;;8.55;3.42;;;;;;;10.21;81.89;100319.19;4880558;29;20049;-85
2022/01/01 16:15:35;;;;;;;6.18;3.58;;;;;;;10.73;81.65;100409.06;4863935;29;20052;-85
2022/01/01 16:18:12;;;;;;;4.43;2.60;;;;;;;10.60;81.62;100386.81;4880086;29;20108;-85
2022/01/01 16:20:44;;;;;;;5.03;2.83;;;;;;;10.74;82.24;100404.81;4881518;29;20533;-85
2022/01/01 16:23:16;;;;;;;6.35;2.60;;;;;;;10.11;81.76;100282.47;4862556;29;20507;-84
2022/01/01 16:25:48;;;;;;;5.50;2.47;;;;;;;11.00;81.67;100422.94;4881298;29;20511;-85
2022/01/01 16:28:22;;;;;;;4.43;1.92;;;;;;;11.13;81.70;100409.47;4881307;29;20056;-85
2022/01/01 16:30:52;;;;;;;4.60;2.55;;;;;;;11.17;81.26;100418.84;4878273;29;20568;-84
2022/01/01 16:33:23;;;;;;;4.72;2.28;;;;;;;11.18;81.12;100412.91;4879291;29;20498;-85
2022/01/01 16:35:57;;;;;;;5.82;3.00;;;;;;;11.21;80.97;100412.91;4880119;29;20117;-85
2022/01/01 16:38:26;;;;;;;5.25;3.00;;;;;;;10.45;80.63;100291.38;4880278;29;20053;-83
2022/01/01 16:41:06;;;;;;;4.45;2.58;;;;;;;11.23;80.74;100406.13;4881653;29;20088;-87
2022/01/01 16:44:01;;;;;;;5.78;3.58;;;;;;;11.25;80.63;100407.84;4879321;29;20503;-89
2022/01/01 16:46:34;;;;;;;7.45;4.25;;;;;;;11.31;80.50;100405.34;4869830;29;20041;-84
2022/01/01 16:49:12;;;;;;;6.25;3.60;;;;;;;11.33;80.13;100413.00;4881744;29;20056;-93
2022/01/01 16:51:53;;;;;;;7.00;3.90;;;;;;;11.35;80.06;100407.06;4869083;29;20053;-91
2022/01/01 16:54:25;;;;;;;6.05;3.80;;;;;;;11.29;79.80;100396.81;4898961;29;20041;-93
2022/01/01 16:57:00;;;;;;;5.80;2.80;;;;;;;11.30;79.99;100402.78;4898945;29;20065;-88
2022/01/01 16:59:33;;;;;;;4.55;2.40;;;;;;;11.34;79.72;100404.50;4881650;29;20052;-90
2022/01/01 17:02:08;;;;;;;5.50;2.70;;;;;;;11.32;80.03;100401.09;4820500;29;20131;-82
2022/01/01 17:04:54;;;;;;;8.25;2.50;;;;;;;11.33;79.77;100406.22;4880411;29;20413;-87
2022/01/01 17:07:27;;;;;;;4.47;2.30;;;;;;;11.31;79.71;100404.47;4897002;29;20048;-83
2022/01/01 17:10:01;;;;;;;3.65;2.22;;;;;;;11.28;79.74;100404.44;4880723;29;20099;-85
2022/01/01 17:12:31;;;;;;;4.80;2.42;;;;;;;11.30;79.83;100407.91;4884973;29;20059;-90
2022/01/01 17:15:02;;;;;;;;;;;;;;;11.32;79.67;100398.53;4895858;29;20059;-85
2022/01/01 17:17:39;;;;;;;4.93;2.55;;;;;;;11.35;79.72;100401.09;4882990;29;19975;-86
2022/01/01 17:20:14;;;;;;;5.10;2.50;;;;;;;11.30;79.53;100392.56;4899142;29;20083;-86
2022/01/01 17:22:47;;;;;;;5.43;2.20;;;;;;;11.32;79.58;100390.88;4866318;29;20052;-82
2022/01/01 17:25:32;;;;;;;4.68;2.78;;;;;;;11.33;79.47;100390.00;4876181;29;20132;-87
2022/01/01 17:28:11;;;;;;;5.03;2.50;;;;;;;11.35;79.39;100391.75;4880553;29;20051;-86
2022/01/01 17:30:43;;;;;;;4.88;2.47;;;;;;;11.40;79.33;100389.22;4881963;29;20053;-87
2022/01/01 17:33:24;;;;;;;6.82;2.92;;;;;;;11.45;79.05;100390.09;4882854;29;20082;-87
2022/01/01 17:41:35;;;;;;;7.40;2.85;;;;;;;11.47;78.84;100411.41;4897996;29;20061;-88
2022/01/01 17:44:18;;;;;;;5.55;2.33;;;;;;;11.01;78.75;100353.16;4895011;29;20037;-78
2022/01/01 17:46:48;;;;;;;6.63;2.95;;;;;;;11.44;78.61;100421.63;4898962;29;20112;-89
2022/01/01 17:49:26;;;;;;;6.47;3.70;;;;;;;11.45;78.80;100433.56;4881313;29;20128;-87
2022/01/01 17:52:02;;;;;;;8.73;3.40;;;;;;;11.47;78.53;100431.03;4894530;29;20127;-88
2022/01/01 17:54:35;;;;;;;5.72;2.90;;;;;;;11.10;78.54;100368.53;4896891;29;20072;-88
2022/01/01 17:59:50;;;;;;;6.75;3.80;;;;;;;11.32;78.69;100421.53;4841087;29;20524;-88
2022/01/01 18:02:21;;;;;;;6.93;3.83;;;;;;;11.33;78.92;100433.47;4826875;29;20065;-88
2022/01/01 18:04:52;;;;;;;8.38;3.25;;;;;;;10.54;78.70;100325.50;4842670;29;20050;-89
2022/01/01 18:07:32;;;;;;;6.63;3.20;;;;;;;11.11;78.74;100436.69;4840562;29;20154;-90
2022/01/01 18:10:06;;;;;;;7.43;3.28;;;;;;;11.03;79.14;100443.41;4835188;29;20049;-90
2022/01/01 18:12:41;;;;;;;6.18;3.47;;;;;;;10.88;79.46;100433.03;4827360;29;20454;-88
2022/01/01 18:15:13;;;;;;;5.60;3.40;;;;;;;10.91;79.79;100438.19;4848263;29;20049;-90
2022/01/01 18:17:51;;;;;;;6.68;3.75;;;;;;;10.89;79.78;100455.19;4852564;29;20081;-90
2022/01/01 18:20:27;;;;;;;11.02;4.13;;;;;;;10.72;80.14;100432.88;4845253;29;20061;-89
2022/01/01 18:22:59;;;;;;;8.98;3.83;;;;;;;10.82;80.06;100438.97;4844700;29;20408;-90
2022/01/01 18:25:38;;;;;;;6.90;3.45;;;;;;;10.81;80.40;100451.69;4857779;29;20048;-89
2022/01/01 18:28:17;;;;;;;6.68;3.92;;;;;;;10.62;80.60;100414.91;4824295;29;20054;-89
2022/01/01 18:30:47;;;;;;;7.45;3.75;;;;;;;10.66;80.54;100429.41;4846476;29;20053;-89
2022/01/01 18:33:22;;;;;;;6.60;3.72;;;;;;;10.77;80.59;100453.38;4892859;29;20083;-89
2022/01/01 18:35:56;;;;;;;7.38;4.03;;;;;;;10.85;80.75;100450.88;4884975;29;20076;-88
2022/01/01 18:38:34;;;;;;;5.20;3.00;;;;;;;10.80;80.78;100455.94;4901088;29;20516;-89
2022/01/01 18:41:08;;;;;;;5.93;3.25;;;;;;;10.77;80.87;100456.75;4885625;29;20088;-89
2022/01/01 18:43:42;;;;;;;6.40;3.10;;;;;;;10.83;80.63;100462.78;4885831;29;20059;-88
2022/01/01 18:46:16;;;;;;;5.90;3.28;;;;;;;10.83;80.84;100462.78;4862187;29;20054;-90
2022/01/01 18:48:49;;;;;;;6.25;3.38;;;;;;;10.80;80.86;100462.78;4862601;29;20052;-91
2022/01/01 18:51:24;;;;;;;7.38;3.38;;;;;;;10.83;81.00;100467.88;4877420;29;20053;-90
2022/01/01 18:53:56;;;;;;;5.82;3.25;;;;;;;10.26;80.68;100384.72;4882217;29;20065;-91
2022/01/01 18:56:30;;;;;;;7.28;3.33;;;;;;;10.74;81.18;100461.84;4881307;29;20096;-91
2022/01/01 18:59:04;;;;;;;5.40;3.33;;;;;;;10.77;81.13;100461.03;4870789;29;20061;-90
2022/01/01 19:01:39;;;;;;;5.00;2.53;;;;;;;10.77;80.97;100469.53;4882896;29;20049;-91
2022/01/01 19:04:19;;;;;;;5.43;3.10;;;;;;;10.68;81.06;100460.91;4875052;29;20049;-87
2022/01/01 19:06:52;;;;;;;6.47;3.38;;;;;;;10.68;80.80;100466.88;4883381;29;20571;-91
2022/01/01 19:09:32;;;;;;;7.60;3.50;;;;;;;10.69;81.43;100468.59;4882141;29;20063;-91
2022/01/01 19:12:06;;;;;;;5.53;3.20;;;;;;;9.77;81.10;100331.38;4883135;29;20057;-92
2022/01/01 19:14:37;;;;;;;6.85;3.50;;;;;;;9.43;81.38;100279.09;4882939;29;20041;-92
2022/01/01 19:17:07;;;;;;;6.95;3.95;;;;;;;9.71;81.51;100321.09;4882901;29;20053;-90
2022/01/01 19:19:37;;;;;;;6.78;3.17;;;;;;;10.06;81.57;100391.25;4882986;29;20075;-93
2022/01/01 19:22:07;;;;;;;5.90;3.75;;;;;;;9.45;81.49;100280.00;4881845;29;20047;-92
2022/01/01 19:24:43;;;;;;;7.55;3.25;;;;;;;10.32;81.51;100430.72;4882927;29;20083;-92
2022/01/01 19:27:24;;;;;;;4.00;2.47;;;;;;;10.45;81.57;100463.22;4883160;29;20049;-92
2022/01/01 19:29:59;;;;;;;6.40;3.90;;;;;;;10.36;81.50;100440.16;4882653;29;20136;-93
2022/01/01 19:32:32;;;;;;;7.03;3.92;;;;;;;10.19;81.80;100428.88;4883005;29;20065;-92
2022/01/01 19:35:07;;;;;;;6.70;3.47;;;;;;;9.14;81.47;100250.69;4882669;29;20057;-92
2022/01/01 19:37:37;;;;;;;7.90;3.70;;;;;;;9.64;81.75;100339.69;4882598;29;20055;-92
2022/01/01 19:40:11;;;;;;;7.03;3.80;;;;;;;9.30;81.72;100295.06;4882151;29;20101;-92
2022/01/01 19:42:50;;;;;;;10.10;3.72;;;;;;;9.54;82.07;100365.88;4881758;29;20389;-92
2022/01/01 19:45:21;;;;;;;5.18;3.28;;;;;;;10.27;82.27;100485.91;4891809;29;20084;-93
2022/01/01 19:48:02;;;;;;;8.48;3.90;;;;;;;9.19;81.77;100305.09;4885919;29;20055;-93
2022/01/01 19:50:38;;;;;;;9.73;4.60;;;;;;;10.26;82.06;100488.47;4870564;29;20056;-93
2022/01/01 19:53:11;;;;;;;8.98;3.83;;;;;;;9.87;82.52;100419.88;4901304;29;20079;-93
2022/01/01 19:55:45;;;;;;;7.65;3.65;;;;;;;9.55;82.48;100383.72;4901844;29;20057;-94
2022/01/01 19:58:20;;;;;;;7.03;3.95;;;;;;;10.15;82.50;100477.28;4900997;29;20049;-92
2022/01/01 20:00:52;;;;;;;10.18;4.30;;;;;;;10.19;82.56;100484.13;4900855;29;20044;-93
2022/01/01 20:03:24;;;;;;;7.90;4.15;;;;;;;9.84;82.57;100425.78;4901025;29;20052;-94
2022/01/01 20:05:55;;;;;;;10.65;6.15;;;;;;;9.62;82.20;100379.59;4900684;29;20151;-93
2022/01/01 20:08:28;;;;;;;10.15;5.93;;;;;;;9.74;82.12;100403.56;4900607;29;20562;-93
2022/01/01 20:10:58;;;;;;;10.98;5.35;;;;;;;9.18;82.23;100308.47;4900770;29;20049;-93
2022/01/01 20:13:32;;;;;;;9.18;4.93;;;;;;;10.17;82.17;100485.78;4901091;29;20053;-93
2022/01/01 20:16:06;;;;;;;11.80;6.03;;;;;;;9.99;82.47;100451.50;4900593;29;20053;-93
2022/01/01 20:18:39;;;;;;;11.55;5.68;;;;;;;10.05;82.15;100472.00;4900865;29;20052;-91
2022/01/01 20:21:12;;;;;;;9.60;5.65;;;;;;;9.15;82.10;100333.91;4884427;29;20048;-93
2022/01/01 20:23:46;;;;;;;10.70;5.65;;;;;;;9.71;82.23;100443.44;4900706;29;20044;-92
2022/01/01 20:26:19;;;;;;;10.23;5.88;;;;;;;10.00;82.49;100477.88;4900392;29;20048;-92
2022/01/01 20:28:51;;;;;;;11.35;6.05;;;;;;;9.72;82.50;100451.09;4900463;29;20396;-92
2022/01/01 20:31:20;;;;;;;11.05;6.00;;;;;;;10.17;82.75;100514.72;4900199;29;20479;-93
2022/01/01 20:33:50;;;;;;;11.55;6.43;;;;;;;10.08;82.27;100504.34;4883765;29;20075;-93
2022/01/01 20:36:23;;;;;;;10.50;5.78;;;;;;;9.24;82.72;100364.59;4900192;29;20049;-93
2022/01/01 20:38:56;;;;;;;11.98;6.07;;;;;;;10.08;82.63;100505.19;4900070;29;20099;-93
2022/01/01 20:41:29;;;;;;;15.82;8.95;;;;;;;10.21;82.52;100515.59;4900160;29;20451;-93
2022/01/01 20:44:05;;;;;;;12.80;7.63;;;;;;;9.41;82.22;100388.63;4900110;29;20503;-92
2022/01/01 20:46:37;;;;;;;13.23;6.68;;;;;;;9.61;82.47;100416.09;4899926;29;20060;-94
2022/01/01 20:49:10;;;;;;;11.45;6.35;;;;;;;10.20;82.75;100522.41;4899941;29;20049;-94
2022/01/01 20:51:45;;;;;;;10.43;6.20;;;;;;;9.44;82.39;100413.31;4900422;29;20080;-93
2022/01/01 20:54:19;;;;;;;11.23;6.10;;;;;;;9.66;82.52;100456.13;4899958;29;20067;-92
2022/01/01 20:56:55;;;;;;;10.73;5.75;;;;;;;9.86;82.48;100494.66;4899272;29;20044;-93
2022/01/01 20:59:32;;;;;;;8.75;5.32;;;;;;;9.78;82.70;100481.81;4900105;29;20052;-92
2022/01/01 21:02:13;;;;;;;9.13;5.80;;;;;;;10.12;82.73;100529.09;4883427;29;20118;-92
2022/01/01 21:04:47;;;;;;;9.98;5.00;;;;;;;9.60;82.58;100445.00;4899502;29;20048;-93
2022/01/01 21:07:23;;;;;;;9.35;5.80;;;;;;;9.93;82.30;100497.31;4899623;29;20415;-93
2022/01/01 21:09:59;;;;;;;13.68;6.22;;;;;;;9.99;82.41;100516.94;4883274;29;20060;-93
2022/01/01 21:12:30;;;;;;;10.02;5.68;;;;;;;10.04;82.77;100531.50;4899915;29;20045;-93
2022/01/01 21:15:06;;;;;;;10.82;5.90;;;;;;;9.99;82.79;100527.16;4899658;29;20052;-93
2022/01/01 21:17:37;;;;;;;9.05;5.40;;;;;;;9.39;82.52;100437.84;4899409;29;20133;-94
2022/01/01 21:20:11;;;;;;;10.32;5.40;;;;;;;8.73;82.31;100323.03;4883424;29;20052;-93
2022/01/01 21:22:44;;;;;;;11.23;5.65;;;;;;;9.14;82.69;100403.47;4899386;29;20048;-93
2022/01/01 21:25:17;;;;;;;10.07;5.40;;;;;;;9.86;82.91;100515.91;4882896;29;20447;-93
2022/01/01 21:27:47;;;;;;;8.85;5.20;;;;;;;9.10;83.24;100404.25;4899339;29;20406;-93
2022/01/01 21:30:19;;;;;;;9.50;5.60;;;;;;;9.86;82.96;100532.91;4883451;29;20479;-93
2022/01/01 21:33:05;;;;;;;9.93;5.53;;;;;;;8.64;83.18;100317.75;4884341;29;20444;-93
2022/01/01 21:35:46;;;;;;;10.68;5.78;;;;;;;9.06;82.63;100427.09;4899338;29;20048;-93
2022/01/01 21:38:29;;;;;;;9.93;5.47;;;;;;;9.31;83.24;100477.59;4870844;29;20135;-93
2022/01/01 21:41:12;;;;;;;11.75;6.38;;;;;;;9.22;83.52;100473.22;4899366;29;20055;-93
2022/01/01 21:43:53;;;;;;;11.55;5.78;;;;;;;9.27;83.74;100466.53;4884535;29;20076;-93
2022/01/01 21:46:39;;;;;;;10.10;5.95;;;;;;;9.78;83.76;100537.88;4899238;29;20048;-93
2022/01/01 21:49:25;;;;;;;12.27;6.82;;;;;;;9.81;83.84;100537.09;4899810;29;20060;-93
2022/01/01 21:52:13;;;;;;;13.27;7.55;;;;;;;9.61;83.49;100502.75;4899884;29;20055;-93
2022/01/01 21:54:54;;;;;;;13.93;6.55;;;;;;;9.31;83.42;100447.91;4899739;29;20056;-93
2022/01/01 21:57:35;;;;;;;10.95;5.90;;;;;;;9.86;83.90;100535.47;4899289;29;20558;-93
2022/01/01 22:00:19;;;;;;;14.30;6.57;;;;;;;9.80;83.86;100545.56;4899346;29;20122;-93
2022/01/01 22:03:01;;;;;;;14.75;8.43;;;;;;;9.52;83.59;100523.00;4884398;29;20108;-93
2022/01/01 22:05:45;;;;;;;19.08;9.70;;;;;;;9.55;83.70;100540.91;4884187;29;20052;-92
2022/01/01 22:08:26;;;;;;;16.70;8.65;;;;;;;9.44;83.84;100526.28;4900447;29;20579;-93
2022/01/01 22:11:05;;;;;;;;;;;;;;;9.48;84.38;100546.72;4888131;29;20052;-94
2022/01/01 22:13:49;;;;;;;13.02;6.47;;;;;;;9.13;84.15;100502.78;4888147;29;20289;-93
2022/01/01 22:16:30;;;;;;;12.73;7.38;;;;;;;9.39;84.23;100558.44;4888355;29;20063;-93
2022/01/01 22:19:12;;;;;;;13.10;6.70;;;;;;;9.37;84.61;100538.88;4902952;29;20396;-92
2022/01/01 22:22:05;;;;;;;11.95;6.28;;;;;;;9.21;84.56;100499.53;4888953;29;20047;-93
2022/01/01 22:24:45;;;;;;;11.45;6.45;;;;;;;9.54;84.52;100551.91;4902757;29;20136;-92
2022/01/01 22:27:34;;;;;;;12.05;5.75;;;;;;;9.33;84.38;100522.66;4888731;29;20187;-93
2022/01/01 22:30:26;;;;;;;12.15;7.03;;;;;;;9.44;84.59;100539.00;4889054;29;20055;-94
2022/01/01 22:33:08;;;;;;;11.88;6.95;;;;;;;9.17;83.84;100501.97;4902755;29;20127;-93
2022/01/01 22:35:53;;;;;;;11.30;6.18;;;;;;;9.45;84.13;100540.72;4902540;29;20155;-92
2022/01/01 22:38:38;;;;;;;11.77;6.15;;;;;;;9.48;84.12;100541.63;4902513;29;20135;-93
2022/01/01 22:41:22;;;;;;;13.00;6.07;;;;;;;9.24;84.03;100512.31;4887541;29;20059;-93
2022/01/01 22:44:03;;;;;;;11.98;6.35;;;;;;;9.06;84.48;100476.34;4887767;29;20526;-93
2022/01/01 22:46:46;;;;;;;12.63;6.85;;;;;;;9.26;84.22;100514.91;4902543;29;20051;-92
2022/01/01 22:49:29;;;;;;;9.35;5.35;;;;;;;9.35;84.68;100521.03;4902402;29;20076;-94
2022/01/01 22:52:23;;;;;;;12.32;6.55;;;;;;;9.17;84.47;100495.22;4861860;29;20135;-93
2022/01/01 22:55:15;;;;;;;11.13;6.07;;;;;;;9.42;84.98;100538.13;4902504;29;20244;-94
2022/01/01 22:58:08;;;;;;;12.40;6.68;;;;;;;8.40;84.52;100358.03;4893440;23;20195;31
2022/01/01 23:01:18;;;;;;;14.88;7.10;;;;;;;9.40;84.62;100529.59;4845234;29;20137;-86
2022/01/01 23:04:03;;;;;;;12.90;6.43;;;;;;;8.27;84.37;100358.63;4846618;29;20046;-86
2022/01/01 23:06:49;;;;;;;11.70;6.03;;;;;;;9.17;84.59;100520.69;4846259;29;20133;-87
2022/01/01 23:09:31;;;;;;;8.05;4.65;;;;;;;9.30;84.43;100542.13;4846066;29;20061;-85
2022/01/01 23:12:13;;;;;;;11.02;5.57;;;;;;;9.31;84.74;100533.66;4845029;29;20054;-86
2022/01/01 23:15:00;;;;;;;10.35;5.45;;;;;;;9.36;84.77;100532.03;4845243;29;20054;-86
2022/01/01 23:17:54;;;;;;;9.85;6.03;;;;;;;9.31;84.88;100531.97;4845898;29;20444;-86
2022/01/01 23:20:48;;;;;;;12.70;5.60;;;;;;;8.95;84.03;100490.53;4845344;29;20493;-86
2022/01/01 23:23:34;;;;;;;10.82;6.00;;;;;;;8.71;84.45;100464.63;4844880;29;20054;-85
2022/01/01 23:26:31;;;;;;;12.48;6.15;;;;;;;8.68;84.33;100478.19;4867895;23;20056;-86
2022/01/01 23:29:15;;;;;;;9.87;5.67;;;;;;;8.82;84.44;100501.34;4882095;29;20506;-86
2022/01/01 23:32:10;;;;;;;15.25;7.78;;;;;;;8.89;84.93;100515.91;4882897;29;20279;-87
2022/01/01 23:35:04;;;;;;;14.07;8.25;;;;;;;8.16;84.83;100410.94;4882200;29;20059;-86
2022/01/01 23:37:45;;;;;;;14.20;6.75;;;;;;;7.90;84.46;100369.72;4882960;29;20056;-86
2022/01/01 23:40:30;;;;;;;15.60;7.30;;;;;;;7.93;84.54;100370.63;4881740;29;20049;-86
2022/01/01 23:43:18;;;;;;;14.95;6.88;;;;;;;8.37;84.73;100465.66;4882680;29;20499;-86
2022/01/01 23:46:12;;;;;;;14.65;6.97;;;;;;;8.24;84.93;100448.41;4882598;29;20061;-86
2022/01/01 23:48:54;;;;;;;11.73;6.50;;;;;;;8.03;85.11;100428.47;4882493;29;20488;-86
2022/01/01 23:51:43;;;;;;;13.73;7.07;;;;;;;7.47;84.79;100352.69;4882634;29;20059;-87
2022/01/01 23:54:35;;;;;;;10.98;6.50;;;;;;;8.45;85.29;100506.50;4882382;29;20084;-87
2022/01/01 23:57:27;;;;;;;15.27;6.68;;;;;;;7.56;85.35;100373.19;4882845;29;20092;-86
